Time;durP1;ratioP1;P1;durP2;ratioP2;P2;SDS_P1;SDS_P2;PMS_P1;PMS_P2;Temp;Humidity;BMP_temperature;BMP_pressure;BME280_temperature;BME280_humidity;BME280_pressure;Samples;Min_cycle;Max_cycle;Signal;HPM_P1;HPM_P2
2021/10/27 00:02:13;;;;;;;60.28;25.80;;;;;;;-0.87;69.11;101494.50;1688296;85;21282;-76
2021/10/27 00:05:18;;;;;;;61.63;24.20;;;;;;;-0.94;68.01;101495.77;1688650;85;21293;-76
2021/10/27 00:08:25;;;;;;;56.37;23.98;;;;;;;-1.00;68.40;101489.32;1687249;85;21736;-76
2021/10/27 00:11:30;;;;;;;63.23;25.12;;;;;;;-1.03;68.10;101485.45;1688551;85;21302;-76
2021/10/27 00:14:34;;;;;;;58.15;24.63;;;;;;;-1.09;67.35;101485.25;1688360;84;21368;-76
2021/10/27 00:17:40;;;;;;;56.90;26.23;;;;;;;-1.14;67.28;101475.68;1688499;85;21324;-76
2021/10/27 00:20:46;;;;;;;64.62;25.70;;;;;;;-1.20;67.72;101484.04;1688010;85;21186;-80
2021/10/27 00:23:51;;;;;;;52.75;24.67;;;;;;;-1.21;68.56;101478.28;1688204;85;21324;-76
2021/10/27 00:26:57;;;;;;;75.35;25.27;;;;;;;-1.24;67.71;101474.38;1689347;85;21392;-80
2021/10/27 00:30:03;;;;;;;61.68;26.80;;;;;;;-1.28;67.15;101473.65;1689420;85;21182;-80
2021/10/27 00:33:08;;;;;;;65.55;28.85;;;;;;;-1.31;67.17;101479.19;1688685;85;21368;-77
2021/10/27 00:36:13;;;;;;;102.30;38.92;;;;;;;-1.33;67.78;101473.87;1689390;85;21230;-77
2021/10/27 00:39:17;;;;;;;61.95;26.93;;;;;;;-1.33;68.97;101475.20;1688064;85;21309;-80
2021/10/27 00:42:23;;;;;;;104.53;39.90;;;;;;;-1.32;69.04;101469.36;1688930;85;21326;-76
2021/10/27 00:45:28;;;;;;;66.30;29.52;;;;;;;-1.34;68.93;101468.58;1689354;85;21186;-80
2021/10/27 00:48:37;;;;;;;79.07;32.73;;;;;;;-1.34;70.01;101464.08;1688018;85;21337;-80
2021/10/27 00:51:40;;;;;;;90.35;37.73;;;;;;;-1.37;69.08;101464.21;1689402;85;21879;-80
2021/10/27 00:54:47;;;;;;;85.77;35.15;;;;;;;-1.39;70.58;101461.22;1689452;85;21308;-76
2021/10/27 00:57:53;;;;;;;75.85;34.58;;;;;;;-1.42;71.16;101464.90;1689443;85;21328;-76
2021/10/27 01:00:57;;;;;;;85.75;33.80;;;;;;;-1.43;71.54;101456.45;1689523;85;21186;-80
2021/10/27 01:04:05;;;;;;;82.70;32.98;;;;;;;-1.40;72.33;101463.03;1689419;85;21320;-76
2021/10/27 01:07:10;;;;;;;80.32;33.92;;;;;;;-1.40;71.68;101454.12;1689157;85;21363;-80
2021/10/27 01:10:16;;;;;;;86.97;36.30;;;;;;;-1.45;72.52;101454.33;1688020;85;21755;-80
2021/10/27 01:13:21;;;;;;;74.25;30.02;;;;;;;-1.43;73.18;101455.11;1688568;85;21230;-76
2021/10/27 01:16:27;;;;;;;75.12;33.78;;;;;;;-1.43;73.71;101447.06;1662532;83;21373;-80
2021/10/27 01:19:32;;;;;;;78.12;34.23;;;;;;;-1.48;74.46;101453.59;1694289;85;21177;-80
2021/10/27 01:22:41;;;;;;;79.67;33.67;;;;;;;-1.50;75.10;101453.67;1694246;85;21315;-76
2021/10/27 01:25:47;;;;;;;74.70;34.23;;;;;;;-1.49;75.44;101442.47;1694228;85;21340;-76
2021/10/27 01:28:52;;;;;;;69.47;30.23;;;;;;;-1.46;75.65;101443.64;1694173;85;21898;-80
2021/10/27 01:31:57;;;;;;;83.67;32.30;;;;;;;-1.47;74.38;101438.75;1694085;85;22745;-76
2021/10/27 01:35:02;;;;;;;66.85;31.23;;;;;;;-1.49;73.26;101442.47;1694266;85;21341;-80
2021/10/27 01:38:08;;;;;;;69.67;31.33;;;;;;;-1.55;72.78;101432.90;1694192;85;21858;-80
2021/10/27 01:41:13;;;;;;;73.52;33.23;;;;;;;-1.58;72.42;101427.66;1693967;85;21299;-77
2021/10/27 01:44:18;;;;;;;77.78;33.92;;;;;;;-1.63;72.95;101429.22;1692812;85;21730;-77
2021/10/27 01:47:23;;;;;;;79.87;33.98;;;;;;;-1.65;73.67;101426.19;1693790;85;21359;-76
2021/10/27 01:50:27;;;;;;;69.00;30.88;;;;;;;-1.68;73.52;101429.91;1658485;86;21807;-80
2021/10/27 01:53:33;;;;;;;63.25;26.57;;;;;;;-1.70;73.63;101426.41;1693097;85;21327;-76
2021/10/27 01:56:39;;;;;;;70.37;28.40;;;;;;;-1.70;74.81;101428.22;1693522;85;21359;-80
2021/10/27 01:59:45;;;;;;;59.20;27.95;;;;;;;-1.71;75.79;101423.33;1657458;86;21828;-76
2021/10/27 02:02:50;;;;;;;70.78;28.00;;;;;;;-1.71;76.52;101419.30;1693412;85;21319;-80
2021/10/27 02:05:56;;;;;;;59.80;27.67;;;;;;;-1.67;77.00;101428.09;1694026;85;21304;-80
2021/10/27 02:09:01;;;;;;;60.08;28.05;;;;;;;-1.66;77.04;101425.80;1692760;85;21316;-77
2021/10/27 02:12:08;;;;;;;60.60;24.30;;;;;;;-1.63;77.08;101420.30;1692931;85;21857;-76
2021/10/27 02:15:14;;;;;;;58.85;24.50;;;;;;;-1.59;76.92;101423.25;1694105;85;21178;-76
2021/10/27 02:18:18;;;;;;;63.23;25.52;;;;;;;-1.56;76.84;101421.73;1693250;85;21343;-80
2021/10/27 02:21:23;;;;;;;57.00;22.80;;;;;;;-1.54;76.86;101421.22;1657034;86;21708;-80
2021/10/27 02:24:28;;;;;;;43.52;20.00;;;;;;;-1.50;76.79;101416.58;1694102;85;21328;-80
2021/10/27 02:27:33;;;;;;;53.58;21.82;;;;;;;-1.48;76.91;101418.23;1693650;85;21767;-76
2021/10/27 02:30:39;;;;;;;58.00;23.10;;;;;;;-1.45;77.12;101424.80;1692728;85;21359;-80
2021/10/27 02:33:43;;;;;;;56.20;22.77;;;;;;;-1.46;77.01;101421.70;1692942;85;21337;-76
2021/10/27 02:36:48;;;;;;;51.18;18.45;;;;;;;-1.46;76.89;101417.67;1694091;85;21289;-76
2021/10/27 02:39:54;;;;;;;46.85;19.45;;;;;;;-1.46;76.99;101416.81;1693415;84;21340;-80
2021/10/27 02:42:59;;;;;;;48.48;20.97;;;;;;;-1.51;77.02;101415.69;1693865;85;21304;-76
2021/10/27 02:46:05;;;;;;;47.93;19.00;;;;;;;-1.51;77.38;101418.84;1694149;85;21170;-80
2021/10/27 02:49:12;;;;;;;45.35;20.60;;;;;;;-1.49;77.74;101416.97;1693953;85;21680;-78
2021/10/27 02:52:17;;;;;;;46.90;20.32;;;;;;;-1.48;77.95;101414.20;1693810;85;21221;-80
2021/10/27 02:55:21;;;;;;;54.15;22.30;;;;;;;-1.43;78.09;101408.14;1694072;85;21857;-80
2021/10/27 02:58:26;;;;;;;50.98;20.65;;;;;;;-1.39;78.02;101406.19;1694185;85;21367;-80
2021/10/27 03:01:31;;;;;;;46.92;19.20;;;;;;;-1.37;77.95;101402.48;1694233;85;21304;-77
2021/10/27 03:04:30;;;;;;;48.05;20.75;;;;;;;-1.34;77.98;101403.68;1694249;85;21182;-76
2021/10/27 03:07:22;;;;;;;48.20;20.10;;;;;;;-1.32;77.92;101398.23;1694290;84;21320;-80
2021/10/27 03:10:27;;;;;;;48.35;20.37;;;;;;;-1.30;78.00;101397.23;1694309;85;21838;-80
2021/10/27 03:13:33;;;;;;;54.85;20.55;;;;;;;-1.27;77.97;101399.35;1693588;85;21294;-77
2021/10/27 03:16:38;;;;;;;50.03;20.37;;;;;;;-1.26;77.99;101401.98;1693338;85;21276;-76
2021/10/27 03:19:43;;;;;;;41.05;19.50;;;;;;;-1.29;77.67;101398.09;1713122;84;21228;-77
2021/10/27 03:22:48;;;;;;;57.20;19.92;;;;;;;-1.35;77.54;101395.23;1690518;85;21329;-76
2021/10/27 03:25:53;;;;;;;49.18;20.85;;;;;;;-1.38;77.38;101396.72;1661864;86;21920;-76
2021/10/27 03:28:58;;;;;;;50.67;20.82;;;;;;;-1.42;77.18;101398.28;1661360;86;21307;-80
2021/10/27 03:32:03;;;;;;;49.18;18.62;;;;;;;-1.44;77.33;101390.78;1660673;86;21753;-80
2021/10/27 03:35:08;;;;;;;35.78;18.10;;;;;;;-1.44;77.70;101391.66;1661879;86;21291;-77
2021/10/27 03:38:14;;;;;;;52.20;18.90;;;;;;;-1.44;77.94;101384.94;1661153;86;21228;-80
2021/10/27 03:41:18;;;;;;;38.55;15.68;;;;;;;-1.46;78.11;101388.16;1660930;86;21307;-77
2021/10/27 03:44:24;;;;;;;55.50;18.32;;;;;;;-1.44;78.17;101376.89;1660894;86;21383;-77
2021/10/27 03:47:29;;;;;;;58.98;21.30;;;;;;;-1.44;78.10;101386.28;1661412;86;21338;-80
2021/10/27 03:50:35;;;;;;;42.33;17.42;;;;;;;-1.45;78.10;101376.98;1661425;86;21359;-77
2021/10/27 03:53:41;;;;;;;56.13;22.02;;;;;;;-1.45;78.12;101377.84;1660777;86;21267;-80
2021/10/27 03:56:46;;;;;;;59.60;21.73;;;;;;;-1.47;78.26;101377.50;1661894;86;21248;-80
2021/10/27 03:59:51;;;;;;;45.23;21.12;;;;;;;-1.46;78.62;101369.84;1661581;86;21339;-76
2021/10/27 04:02:59;;;;;;;41.13;16.45;;;;;;;-1.42;78.79;101381.70;1661273;86;21899;-80
2021/10/27 04:06:04;;;;;;;43.87;17.52;;;;;;;-1.43;78.69;101379.10;1661827;86;21644;-76
2021/10/27 04:09:11;;;;;;;51.60;19.90;;;;;;;-1.48;78.56;101377.11;1660464;86;21206;-80
2021/10/27 04:12:17;;;;;;;49.80;18.50;;;;;;;-1.54;78.40;101374.25;1661520;86;21545;-80
2021/10/27 04:15:22;;;;;;;45.20;19.67;;;;;;;-1.59;78.27;101370.45;1661828;86;21343;-80
2021/10/27 04:18:27;;;;;;;52.75;19.42;;;;;;;-1.60;78.40;101376.77;1658422;86;21205;-80
2021/10/27 04:21:33;;;;;;;35.83;16.70;;;;;;;-1.60;78.38;101382.13;1710047;84;21780;-76
2021/10/27 04:24:38;;;;;;;37.25;17.40;;;;;;;-1.60;78.26;101378.55;1709735;84;21317;-80
2021/10/27 04:27:43;;;;;;;34.55;16.27;;;;;;;-1.63;78.15;101380.06;1709742;84;21759;-80
2021/10/27 04:30:48;;;;;;;31.37;15.80;;;;;;;-1.65;78.50;101376.56;1710640;84;21353;-80
2021/10/27 04:33:53;;;;;;;50.80;16.42;;;;;;;-1.63;78.89;101372.01;1709661;84;21356;-80
2021/10/27 04:36:59;;;;;;;43.28;17.32;;;;;;;-1.61;79.38;101380.37;1709414;84;21217;-77
2021/10/27 04:40:04;;;;;;;46.05;17.27;;;;;;;-1.60;79.84;101381.23;1711009;84;21245;-76
2021/10/27 04:43:08;;;;;;;45.65;17.27;;;;;;;-1.55;79.90;101385.94;1709598;84;21367;-80
2021/10/27 04:46:14;;;;;;;42.20;16.97;;;;;;;-1.50;80.09;101385.25;1709295;84;21294;-80
2021/10/27 04:49:21;;;;;;;49.35;18.90;;;;;;;-1.46;80.08;101395.34;1710816;84;21282;-76
2021/10/27 04:52:26;;;;;;;49.13;20.43;;;;;;;-1.43;79.72;101402.78;1709755;84;21759;-80
2021/10/27 04:55:31;;;;;;;70.78;24.80;;;;;;;-1.40;79.26;101408.48;1710898;84;21174;-76
2021/10/27 04:58:36;;;;;;;174.18;56.53;;;;;;;-1.36;78.91;101406.92;1709768;84;21345;-80
2021/10/27 05:01:50;;;;;;;282.95;78.67;;;;;;;-1.32;78.55;101403.16;1709351;84;21872;-76
2021/10/27 05:04:55;;;;;;;280.42;88.12;;;;;;;-1.27;78.20;101402.03;1710568;84;21894;-80
2021/10/27 05:08:03;;;;;;;62.15;22.05;;;;;;;-1.24;77.66;101399.22;1710261;84;21321;-76
2021/10/27 05:11:09;;;;;;;41.33;17.82;;;;;;;-1.20;77.44;101406.17;1735575;82;21199;-80
2021/10/27 05:14:15;;;;;;;50.98;18.05;;;;;;;-1.16;77.47;101404.61;1733916;81;21223;-76
2021/10/27 05:17:21;;;;;;;45.95;17.98;;;;;;;-1.14;77.70;101405.88;1734291;81;21297;-76
2021/10/27 05:20:26;;;;;;;45.95;20.27;;;;;;;-1.11;78.04;101409.28;1717896;82;21931;-76
2021/10/27 05:23:31;;;;;;;63.38;22.50;;;;;;;-1.05;78.27;101413.48;1731338;82;21186;-80
2021/10/27 05:26:36;;;;;;;70.22;26.10;;;;;;;-0.93;78.44;101415.57;1756673;81;21268;-79
2021/10/27 05:29:41;;;;;;;46.90;20.30;;;;;;;-0.85;78.58;101412.48;1759405;81;21233;-79
2021/10/27 05:32:45;;;;;;;51.80;23.32;;;;;;;-0.74;79.11;101419.55;1728794;83;21282;-80
2021/10/27 05:35:50;;;;;;;67.62;26.60;;;;;;;-0.64;79.57;101413.23;1735795;82;21321;-78
2021/10/27 05:38:55;;;;;;;51.42;22.80;;;;;;;-0.51;79.86;101414.36;1725619;81;21855;-79
2021/10/27 05:41:56;;;;;;;52.27;21.00;;;;;;;-0.39;79.89;101419.08;1726871;82;21304;-79
2021/10/27 05:45:04;;;;;;;49.23;19.77;;;;;;;-0.29;79.82;101423.51;1725150;81;21441;-75
2021/10/27 05:48:11;;;;;;;48.52;21.05;;;;;;;-0.17;79.69;101426.05;1724025;82;21214;-76
2021/10/27 05:51:24;;;;;;;45.38;20.95;;;;;;;-0.06;79.55;101427.20;1729894;82;21175;-79
2021/10/27 05:57:48;;;;;;;62.65;23.00;;;;;;;0.23;79.19;101409.49;1724700;82;21213;-80
2021/10/27 06:00:54;;;;;;;49.50;18.95;;;;;;;0.44;79.27;101411.50;1725609;81;21380;-79
2021/10/27 06:04:00;;;;;;;58.70;22.67;;;;;;;0.62;79.32;101408.27;1724120;81;21715;-75
2021/10/27 06:07:06;;;;;;;58.02;21.57;;;;;;;0.81;79.08;101413.48;1722312;81;21459;-75
2021/10/27 06:10:18;;;;;;;50.12;20.45;;;;;;;0.97;78.80;101410.78;1728403;81;21836;-76
2021/10/27 06:13:19;;;;;;;47.90;20.15;;;;;;;1.13;78.77;101408.95;1726360;82;21482;-80
2021/10/27 06:16:25;;;;;;;46.05;18.70;;;;;;;1.31;78.76;101407.47;1724919;81;21281;-79
2021/10/27 06:19:31;;;;;;;52.70;20.05;;;;;;;1.50;78.63;101409.45;1726400;81;21357;-79
2021/10/27 06:22:35;;;;;;;40.38;16.50;;;;;;;1.69;78.47;101415.48;1700161;82;21271;-75
2021/10/27 06:25:41;;;;;;;39.92;18.05;;;;;;;1.87;78.27;101409.94;1697038;82;21405;-75
2021/10/27 06:29:02;;;;;;;45.43;17.90;;;;;;;2.03;78.05;101410.27;1688821;84;21252;-75
2021/10/27 06:35:16;;;;;;;35.75;14.50;;;;;;;2.39;77.71;101416.14;1704087;82;21286;-76
2021/10/27 06:38:35;;;;;;;33.18;14.95;;;;;;;2.59;77.77;101415.77;1696637;82;21188;-78
2021/10/27 06:48:21;;;;;;;27.60;12.82;;;;;;;3.15;77.17;101410.30;1682656;83;21657;-79
2021/10/27 06:51:29;;;;;;;25.92;12.90;;;;;;;3.35;77.19;101406.30;1706195;82;21737;-76
2021/10/27 06:54:33;;;;;;;29.18;13.98;;;;;;;3.53;76.97;101407.27;1712133;82;21237;-76
2021/10/27 06:57:38;;;;;;;33.58;12.90;;;;;;;3.68;76.62;101404.00;1705309;82;21193;-79
2021/10/27 07:00:56;;;;;;;31.25;13.53;;;;;;;3.82;76.08;101405.75;1704787;83;21351;-76
2021/10/27 07:04:27;;;;;;;24.67;12.60;;;;;;;3.95;75.94;101397.62;1703991;82;21290;-76
2021/10/27 07:17:14;;;;;;;17.67;9.50;;;;;;;4.51;74.93;101388.66;1691838;85;21201;-78
2021/10/27 07:20:19;;;;;;;23.92;10.93;;;;;;;4.63;74.57;101390.98;1719797;82;21262;-76
2021/10/27 07:23:25;;;;;;;23.38;11.22;;;;;;;4.76;74.56;101392.69;1703014;81;21298;-76
2021/10/27 07:26:32;;;;;;;33.25;10.03;;;;;;;4.88;74.54;101386.83;1685090;82;21902;-76
2021/10/27 07:29:38;;;;;;;15.85;9.33;;;;;;;5.01;74.34;101374.10;1692403;82;21361;-76
2021/10/27 07:32:44;;;;;;;22.80;10.72;;;;;;;5.13;74.09;101373.20;1702061;82;21285;-76
2021/10/27 07:35:57;;;;;;;23.90;11.10;;;;;;;5.25;73.81;101366.45;1691012;82;21293;-76
2021/10/27 07:42:24;;;;;;;21.68;10.10;;;;;;;5.46;73.02;101365.30;1696428;82;21344;-76
2021/10/27 07:45:29;;;;;;;26.93;11.28;;;;;;;5.58;72.93;101356.22;1691348;84;21291;-76
2021/10/27 07:48:37;;;;;;;16.65;9.35;;;;;;;5.70;72.56;101347.14;1695314;82;21353;-76
2021/10/27 07:51:42;;;;;;;16.12;8.38;;;;;;;5.81;72.30;101345.80;1694735;82;21276;-76
2021/10/27 07:54:48;;;;;;;15.58;9.55;;;;;;;5.90;71.98;101343.71;1698884;84;21862;-76
2021/10/27 07:57:55;;;;;;;25.00;11.63;;;;;;;6.00;71.62;101338.95;1703991;82;21392;-76
2021/10/27 08:01:02;;;;;;;20.80;9.95;;;;;;;6.07;71.16;101338.81;1697933;82;21164;-76
2021/10/27 08:04:08;;;;;;;17.42;9.33;;;;;;;6.13;71.10;101324.77;1698327;82;21510;-80
2021/10/27 08:07:13;;;;;;;20.50;11.20;;;;;;;6.23;70.71;101324.39;1698574;82;21319;-80
2021/10/27 08:10:20;;;;;;;23.60;10.98;;;;;;;6.33;70.44;101316.36;1692598;84;21320;-79
2021/10/27 08:13:25;;;;;;;18.35;9.85;;;;;;;6.43;70.19;101324.13;1695457;84;21816;-80
2021/10/27 08:16:31;;;;;;;22.50;9.95;;;;;;;6.52;69.78;101327.45;1694057;82;21302;-76
2021/10/27 08:19:36;;;;;;;28.65;10.93;;;;;;;6.56;69.55;101319.92;1693573;82;21183;-76
2021/10/27 08:22:43;;;;;;;23.15;10.40;;;;;;;6.63;69.28;101321.13;1696530;83;21280;-76
2021/10/27 08:25:52;;;;;;;21.45;10.55;;;;;;;6.69;69.00;101316.56;1722535;81;21649;-76
2021/10/27 08:28:57;;;;;;;29.32;9.25;;;;;;;6.76;68.91;101315.05;1713881;82;21215;-80
2021/10/27 08:32:10;;;;;;;37.20;9.15;;;;;;;6.85;68.78;101312.92;1733888;81;21281;-80
2021/10/27 08:35:11;;;;;;;23.00;8.90;;;;;;;6.91;68.28;101315.13;1724690;81;21268;-76
2021/10/27 08:38:16;;;;;;;21.17;9.55;;;;;;;6.98;67.84;101319.57;1726157;81;21296;-80
2021/10/27 08:41:24;;;;;;;13.38;7.30;;;;;;;7.02;67.90;101306.58;1725956;81;21285;-79
2021/10/27 08:44:28;;;;;;;12.47;6.08;;;;;;;7.05;67.71;101304.94;1726008;81;21228;-76
2021/10/27 08:47:34;;;;;;;18.60;7.22;;;;;;;7.08;67.19;101297.89;1724211;81;21290;-76
2021/10/27 08:50:39;;;;;;;14.53;6.58;;;;;;;7.08;66.95;101289.23;1728218;82;21157;-77
2021/10/27 08:53:46;;;;;;;15.00;6.33;;;;;;;7.09;66.88;101280.07;1727783;81;21739;-76
2021/10/27 08:56:54;;;;;;;15.38;6.75;;;;;;;7.14;66.91;101268.80;1726807;81;22129;-76
2021/10/27 09:00:11;;;;;;;20.92;7.12;;;;;;;7.21;66.81;101263.21;1729760;81;21255;-76
2021/10/27 09:06:33;;;;;;;28.87;7.12;;;;;;;7.28;65.90;101253.51;1718277;82;21715;-79
2021/10/27 09:09:53;;;;;;;29.07;8.30;;;;;;;7.35;66.12;101256.08;1726053;82;21825;-80
2021/10/27 09:40:11;;;;;;;24.27;8.03;;;;;;;7.65;63.50;101213.55;1728627;82;21881;-80
2021/10/27 09:47:00;;;;;;;25.90;7.10;;;;;;;7.68;63.11;101209.21;1727841;82;21882;-80
2021/10/27 10:04:01;;;;;;;26.33;7.30;;;;;;;7.79;63.19;101201.44;1732848;82;21193;-76
2021/10/27 10:07:02;;;;;;;39.85;6.50;;;;;;;7.87;61.69;101194.81;1708780;84;21937;-78
2021/10/27 10:10:06;;;;;;;23.55;5.95;;;;;;;7.91;60.38;101194.91;1730733;82;21827;-78
2021/10/27 10:13:11;;;;;;;25.82;6.72;;;;;;;7.92;59.84;101198.84;1725950;82;21275;-78
2021/10/27 10:16:18;;;;;;;39.48;7.40;;;;;;;7.98;59.65;101188.39;1715635;82;21810;-79
2021/10/27 10:19:26;;;;;;;29.87;6.05;;;;;;;8.01;59.65;101179.95;1731997;81;21358;-79
2021/10/27 10:22:43;;;;;;;28.80;5.60;;;;;;;8.02;59.61;101173.50;1724630;82;21328;-76
2021/10/27 10:26:00;;;;;;;24.10;4.25;;;;;;;8.04;59.14;101170.98;1715105;81;21340;-76
2021/10/27 10:29:05;;;;;;;31.55;5.45;;;;;;;8.08;58.06;101177.02;1719737;82;21216;-76
2021/10/27 10:32:35;;;;;;;24.63;4.08;;;;;;;8.16;57.68;101171.24;1719113;82;21633;-79
2021/10/27 10:36:03;;;;;;;14.00;4.35;;;;;;;8.21;57.45;101172.19;1715676;82;21906;-76
2021/10/27 10:42:34;;;;;;;25.68;4.80;;;;;;;8.30;56.82;101162.31;1723710;82;21270;-79
2021/10/27 10:56:41;;;;;;;18.90;5.75;;;;;;;8.34;56.18;101156.44;1717917;82;21589;-76
2021/10/27 11:03:27;;;;;;;21.15;5.80;;;;;;;8.33;57.38;101132.91;1718141;81;21305;-79
2021/10/27 11:26:17;;;;;;;27.90;6.05;;;;;;;8.42;56.54;101102.11;1712786;81;21531;-79
2021/10/27 11:39:48;;;;;;;25.90;6.00;;;;;;;8.45;56.40;101095.48;1704242;82;21414;-79
2021/10/27 11:42:40;;;;;;;18.90;6.67;;;;;;;8.42;56.67;101095.28;1702985;82;22296;-76
2021/10/27 11:48:58;;;;;;;28.73;6.97;;;;;;;8.45;56.81;101092.25;1709198;82;21342;-76
2021/10/27 11:52:02;;;;;;;27.60;6.80;;;;;;;8.47;56.87;101093.97;1720224;82;21320;-80
2021/10/27 11:55:08;;;;;;;27.48;7.17;;;;;;;8.44;56.96;101085.09;1676662;85;21329;-77
2021/10/27 11:58:12;;;;;;;21.50;6.65;;;;;;;8.44;56.88;101077.41;1737647;82;21329;-79
2021/10/27 12:01:43;;;;;;;17.23;6.47;;;;;;;8.43;56.69;101084.73;1672523;85;21276;-77
2021/10/27 12:04:48;;;;;;;21.02;6.72;;;;;;;8.43;56.54;101081.15;1715559;82;21288;-80
2021/10/27 12:07:57;;;;;;;27.25;7.28;;;;;;;8.45;55.92;101077.26;1721288;82;21225;-80
2021/10/27 12:11:16;;;;;;;20.27;7.30;;;;;;;8.47;55.73;101083.06;1717125;83;21304;-80
2021/10/27 12:14:22;;;;;;;17.15;6.55;;;;;;;8.44;55.81;101085.09;1725185;82;21275;-80
2021/10/27 12:17:40;;;;;;;24.07;6.90;;;;;;;8.40;55.96;101085.02;1704988;83;21201;-80
2021/10/27 12:21:02;;;;;;;13.32;6.22;;;;;;;8.36;56.14;101083.57;1721002;83;21304;-77
2021/10/27 12:24:08;;;;;;;12.98;5.55;;;;;;;8.32;56.39;101080.73;1712888;83;21284;-77
2021/10/27 12:27:34;;;;;;;18.48;8.28;;;;;;;8.28;56.54;101073.87;1706936;83;21165;-80
2021/10/27 12:30:47;;;;;;;17.17;6.70;;;;;;;8.27;57.02;101080.30;1734615;82;21301;-76
2021/10/27 12:33:52;;;;;;;23.35;7.03;;;;;;;8.24;57.16;101060.17;1679280;85;21366;-76
2021/10/27 12:37:00;;;;;;;14.13;5.78;;;;;;;8.22;57.51;101049.04;1708648;84;21315;-79
2021/10/27 12:40:23;;;;;;;10.55;5.20;;;;;;;8.17;57.96;101052.19;1697197;83;21185;-79
2021/10/27 12:43:27;;;;;;;7.75;4.47;;;;;;;8.12;58.33;101050.40;1722628;81;21647;-80
2021/10/27 12:46:32;;;;;;;15.13;5.47;;;;;;;8.12;58.40;101058.06;1724695;81;21177;-80
2021/10/27 12:49:39;;;;;;;17.45;5.92;;;;;;;8.12;58.36;101054.48;1738278;81;21257;-80
2021/10/27 12:52:46;;;;;;;11.08;4.20;;;;;;;8.10;58.47;101053.78;1731147;81;21301;-76
2021/10/27 12:55:52;;;;;;;8.18;4.03;;;;;;;8.08;58.27;101055.77;1724856;82;21292;-80
2021/10/27 12:59:09;;;;;;;8.85;4.00;;;;;;;8.05;58.04;101054.20;1715484;83;21809;-80
2021/10/27 13:02:21;;;;;;;10.68;4.22;;;;;;;8.02;57.89;101056.34;1703253;82;21343;-77
2021/10/27 13:05:39;;;;;;;13.60;5.37;;;;;;;8.01;57.61;101056.85;1688800;85;21283;-79
2021/10/27 13:15:21;;;;;;;10.55;5.12;;;;;;;8.15;57.14;101037.86;1732493;82;21363;-78
2021/10/27 13:18:41;;;;;;;14.33;5.17;;;;;;;8.18;56.52;101030.74;1736470;82;21173;-78
2021/10/27 13:21:49;;;;;;;11.00;4.58;;;;;;;8.23;55.99;101035.26;1736838;82;21253;-77
2021/10/27 13:31:35;;;;;;;8.98;4.47;;;;;;;8.22;56.00;101034.91;1728112;82;21293;-81
2021/10/27 13:34:40;;;;;;;10.78;4.33;;;;;;;8.15;56.24;101025.59;1734206;82;21264;-77
2021/10/27 13:37:47;;;;;;;7.30;4.05;;;;;;;8.11;56.20;101026.88;1731618;82;21788;-78
2021/10/27 13:40:51;;;;;;;6.80;3.60;;;;;;;8.04;56.06;101023.85;1728782;82;21260;-77
2021/10/27 13:44:02;;;;;;;11.53;4.28;;;;;;;7.98;55.99;101031.24;1733415;83;21845;-80
2021/10/27 14:06:50;;;;;;;8.43;3.72;;;;;;;7.43;55.82;101030.84;1734659;83;21842;-80
2021/10/27 14:13:20;;;;;;;6.80;3.80;;;;;;;7.25;55.31;101026.58;1696500;83;21751;-77
2021/10/27 15:23:33;;;;;;;12.60;5.43;;;;;;;4.96;59.86;101037.37;1731550;83;21419;-77
2021/10/27 15:30:03;;;;;;;15.83;5.67;;;;;;;4.81;60.61;101038.61;1731797;83;21300;-77
2021/10/27 15:36:23;;;;;;;14.23;5.92;;;;;;;4.61;61.04;101047.82;1731905;83;22298;-79
2021/10/27 15:43:03;;;;;;;17.40;6.22;;;;;;;4.40;61.77;101039.13;1731260;83;21308;-80
2021/10/27 15:52:42;;;;;;;22.05;7.85;;;;;;;4.09;62.34;101049.59;1731530;83;21324;-79
2021/10/27 15:55:47;;;;;;;43.55;9.33;;;;;;;4.01;62.62;101047.98;1731911;83;21198;-79
2021/10/27 15:58:52;;;;;;;38.38;10.38;;;;;;;3.96;62.47;101048.83;1731815;83;21885;-80
2021/10/27 16:01:57;;;;;;;27.25;9.35;;;;;;;3.89;62.62;101052.95;1731901;83;21288;-80
2021/10/27 16:05:03;;;;;;;31.12;9.60;;;;;;;3.81;62.74;101050.36;1730296;83;21303;-80
2021/10/27 16:08:13;;;;;;;44.38;14.28;;;;;;;3.74;62.97;101050.91;1730249;82;21174;-80
2021/10/27 16:11:19;;;;;;;368.97;114.60;;;;;;;3.66;63.18;101053.32;1731228;83;21182;-77
2021/10/27 16:14:28;;;;;;;231.97;71.42;;;;;;;3.58;62.92;101068.78;1732024;83;21894;-77
2021/10/27 16:17:32;;;;;;;186.97;60.15;;;;;;;3.51;62.35;101064.79;1731486;83;21912;-77
2021/10/27 16:20:38;;;;;;;149.42;49.30;;;;;;;3.45;62.52;101064.76;1731357;83;21838;-77
2021/10/27 16:23:43;;;;;;;148.93;48.40;;;;;;;3.41;62.87;101070.50;1730411;83;21889;-77
2021/10/27 16:26:48;;;;;;;113.10;39.45;;;;;;;3.35;62.99;101069.11;1731598;83;21343;-79
2021/10/27 16:29:53;;;;;;;114.82;35.33;;;;;;;3.33;63.29;101068.34;1731625;83;21312;-76
2021/10/27 16:32:58;;;;;;;120.82;37.30;;;;;;;3.30;63.48;101063.17;1731147;83;21311;-79
2021/10/27 16:36:04;;;;;;;140.88;47.65;;;;;;;3.25;63.68;101063.52;1731742;83;21341;-76
2021/10/27 16:39:11;;;;;;;120.35;39.53;;;;;;;3.21;63.27;101065.19;1731744;83;21272;-80
2021/10/27 16:42:17;;;;;;;96.05;35.25;;;;;;;3.14;63.10;101066.10;1731746;83;21189;-76
2021/10/27 16:45:22;;;;;;;112.97;37.42;;;;;;;3.07;63.29;101070.23;1731961;83;21280;-76
2021/10/27 16:48:28;;;;;;;104.55;32.25;;;;;;;3.01;63.75;101072.89;1731932;83;21321;-80
2021/10/27 16:51:34;;;;;;;86.28;30.20;;;;;;;2.96;64.00;101075.52;1731984;83;21838;-80
2021/10/27 16:54:40;;;;;;;95.47;30.60;;;;;;;2.94;64.05;101086.45;1731808;83;21272;-80
2021/10/27 16:57:45;;;;;;;94.13;30.52;;;;;;;2.87;63.84;101075.72;1731208;83;21324;-77
2021/10/27 17:00:51;;;;;;;119.13;38.08;;;;;;;2.81;64.23;101079.69;1731612;83;21822;-76
2021/10/27 17:03:56;;;;;;;160.40;47.78;;;;;;;2.77;64.24;101077.30;1730523;83;21336;-76
2021/10/27 17:07:03;;;;;;;154.15;48.25;;;;;;;2.72;63.56;101080.82;1731718;83;21328;-79
2021/10/27 17:10:09;;;;;;;168.17;51.90;;;;;;;2.66;62.85;101080.77;1731910;83;21917;-79
2021/10/27 17:13:14;;;;;;;170.75;52.67;;;;;;;2.63;62.92;101082.32;1731828;83;21249;-78
2021/10/27 17:16:20;;;;;;;159.63;48.33;;;;;;;2.63;63.13;101080.11;1731986;83;21197;-77
2021/10/27 17:19:26;;;;;;;152.80;50.43;;;;;;;2.63;63.22;101085.02;1731760;83;21146;-77
2021/10/27 17:22:37;;;;;;;183.50;57.17;;;;;;;2.67;63.47;101082.49;1731476;83;21834;-79
2021/10/27 17:25:39;;;;;;;181.07;54.95;;;;;;;2.72;63.50;101079.47;1731741;83;21276;-79
2021/10/27 17:28:45;;;;;;;148.40;49.75;;;;;;;2.78;63.63;101081.27;1731789;83;21333;-80
2021/10/27 17:31:51;;;;;;;152.35;47.43;;;;;;;2.84;63.44;101076.41;1730936;83;21324;-77
2021/10/27 17:34:56;;;;;;;166.53;50.10;;;;;;;2.91;63.47;101085.80;1731742;83;21272;-76
2021/10/27 17:38:01;;;;;;;174.93;60.08;;;;;;;2.97;63.49;101085.39;1731038;83;21304;-77
2021/10/27 17:41:06;;;;;;;198.78;65.10;;;;;;;3.04;62.76;101088.02;1731525;83;21300;-80
2021/10/27 17:44:11;;;;;;;183.65;64.03;;;;;;;3.11;63.21;101085.76;1731648;83;21276;-80
2021/10/27 17:47:23;;;;;;;192.53;66.02;;;;;;;3.19;63.14;101089.61;1731535;83;21336;-76
2021/10/27 17:50:35;;;;;;;184.60;71.67;;;;;;;3.27;63.05;101080.96;1731836;83;21304;-80
2021/10/27 18:00:03;;;;;;;235.55;94.20;;;;;;;3.54;64.84;101081.66;1731884;83;21280;-76
2021/10/27 18:03:09;;;;;;;202.20;84.32;;;;;;;3.64;65.31;101072.38;1730734;83;21299;-77
2021/10/27 18:06:13;;;;;;;197.17;82.60;;;;;;;3.74;65.90;101074.77;1711062;83;21312;-76
2021/10/27 18:09:19;;;;;;;150.30;62.08;;;;;;;3.85;66.29;101084.80;1731910;83;21288;-80
2021/10/27 18:12:26;;;;;;;152.20;58.78;;;;;;;3.94;66.94;101080.05;1731529;83;21289;-80
2021/10/27 18:15:37;;;;;;;136.20;53.45;;;;;;;4.02;67.09;101083.05;1731748;83;21313;-76
2021/10/27 18:18:54;;;;;;;131.90;52.78;;;;;;;4.12;67.22;101084.57;1730601;83;21315;-80
2021/10/27 18:22:15;;;;;;;130.82;51.58;;;;;;;4.20;67.33;101075.88;1714240;83;21296;-76
2021/10/27 18:25:18;;;;;;;138.68;52.85;;;;;;;4.27;67.35;101082.05;1731914;83;21245;-79
2021/10/27 18:28:39;;;;;;;129.23;52.67;;;;;;;4.31;66.52;101080.83;1731680;83;21288;-77